sim
Sign-in with your pilot id or email,
or register
Callsign
Passwort

Schedule Details

Flight Number: RYR8583 (3)
Departure: Thessaloniki International Airport (LGTS) at 13:45
Arrival: London Stansted Airport (EGSS) at 17:10
Route: Ryanair Passenger Schedule. Enter filed route here before submitting Pirep.

Weather Information
Getting current METAR information for LGTS 192250Z 15005KT 9999 FEW020 13/09 Q1023 NOSIG
Getting current METAR information for EGSS 192250Z AUTO 02005KT 9999 NCD 10/05 Q1031

Schedule Frequency

Route Map